createdAt,value
2023-02-07T00:01:11.479Z,45.72
2023-02-07T00:03:38.084Z,42.67
2023-02-07T00:06:06.779Z,45.05
2023-02-07T00:08:33.143Z,47.13
2023-02-07T00:11:04.589Z,39.28
2023-02-07T00:13:30.955Z,49.28
2023-02-07T00:15:57.331Z,39.25
2023-02-07T00:18:23.694Z,40.30
2023-02-07T00:21:01.273Z,45.25
2023-02-07T00:23:27.995Z,39.53
2023-02-07T00:25:54.407Z,43.95
2023-02-07T00:28:20.903Z,50.38
2023-02-07T00:30:47.498Z,53.30
2023-02-07T00:33:14.463Z,48.70
2023-02-07T00:35:40.976Z,47.88
2023-02-07T00:38:07.417Z,50.25
2023-02-07T00:40:33.828Z,45.42
2023-02-07T00:43:00.242Z,49.92
2023-02-07T00:45:26.638Z,48.67
2023-02-07T00:47:53.022Z,43.92
2023-02-07T00:50:19.497Z,46.38
2023-02-07T00:52:45.862Z,48.97
2023-02-07T00:55:12.251Z,42.10
2023-02-07T00:57:38.609Z,46.55
2023-02-07T01:00:05.442Z,51.55
2023-02-07T01:02:31.839Z,45.75
2023-02-07T01:05:00.083Z,39.95
2023-02-07T01:07:26.515Z,49.65
2023-02-07T01:09:52.887Z,40.03
2023-02-07T01:12:19.283Z,40.10
2023-02-07T01:14:45.669Z,40.58
2023-02-07T01:17:12.054Z,44.10
2023-02-07T01:19:38.418Z,41.08
2023-02-07T01:22:05.873Z,41.20
2023-02-07T01:24:32.259Z,38.55
2023-02-07T01:26:58.645Z,41.17
2023-02-07T01:29:25.042Z,43.67
2023-02-07T01:31:51.671Z,41.97
2023-02-07T01:34:18.113Z,34.70
2023-02-07T01:36:44.526Z,39.92
2023-02-07T01:39:11.229Z,40.55
2023-02-07T01:41:38.103Z,44.40
2023-02-07T01:44:21.660Z,42.33
2023-02-07T01:46:48.683Z,50.47
2023-02-07T01:49:18.685Z,45.58
2023-02-07T01:51:48.637Z,46.22
2023-02-07T01:54:16.134Z,41.92
2023-02-07T01:56:48.943Z,58.08
2023-02-07T01:59:15.520Z,58.47
2023-02-07T02:01:42.290Z,58.50
2023-02-07T02:04:08.688Z,56.65
2023-02-07T02:06:35.259Z,34.03
2023-02-07T02:09:07.308Z,34.67
2023-02-07T02:12:14.772Z,36.88
2023-02-07T02:14:47.196Z,36.47
2023-02-07T02:17:22.781Z,36.53
2023-02-07T02:19:55.216Z,35.05
2023-02-07T02:22:28.506Z,33.70
2023-02-07T02:25:03.850Z,42.30
2023-02-07T02:27:43.728Z,36.28
2023-02-07T02:30:37.986Z,47.53
2023-02-07T02:33:14.600Z,37.33
2023-02-07T02:36:10.319Z,40.97
2023-02-07T02:38:52.113Z,39.35
2023-02-07T02:41:24.801Z,35.47
2023-02-07T02:44:01.627Z,33.95
2023-02-07T02:46:31.690Z,33.95
2023-02-07T02:48:58.445Z,37.08
2023-02-07T02:51:24.814Z,40.97
2023-02-07T02:53:55.493Z,36.55
2023-02-07T02:56:55.887Z,33.45
2023-02-07T02:59:28.278Z,37.40
2023-02-07T03:02:17.902Z,35.38
2023-02-07T03:05:16.378Z,35.13
2023-02-07T03:07:52.761Z,29.75
2023-02-07T03:10:40.583Z,39.00
2023-02-07T03:13:27.075Z,37.15
2023-02-07T03:16:04.178Z,35.60
2023-02-07T03:19:13.409Z,32.45
2023-02-07T03:21:45.916Z,59.80
2023-02-07T03:24:20.074Z,66.63
2023-02-07T03:26:47.069Z,73.43
2023-02-07T03:29:15.131Z,51.08
2023-02-07T03:31:43.688Z,57.08
2023-02-07T03:34:17.816Z,54.58
2023-02-07T03:37:33.765Z,49.45
2023-02-07T03:40:00.263Z,49.97
2023-02-07T03:42:33.180Z,41.20
2023-02-07T03:45:01.111Z,40.65
2023-02-07T03:47:27.772Z,37.00
2023-02-07T03:49:54.655Z,38.08
2023-02-07T03:52:21.058Z,31.00
2023-02-07T03:54:47.450Z,38.13
2023-02-07T03:57:13.939Z,40.67
2023-02-07T03:59:40.382Z,38.70
2023-02-07T04:02:06.823Z,38.15
2023-02-07T04:04:33.222Z,40.95
2023-02-07T04:06:59.601Z,41.42
2023-02-07T04:09:26.141Z,36.83
2023-02-07T04:11:52.588Z,38.58
2023-02-07T04:14:22.352Z,35.58
2023-02-07T04:16:49.288Z,39.50
2023-02-07T04:19:16.333Z,39.85
2023-02-07T04:21:42.852Z,33.45
2023-02-07T04:24:09.534Z,39.03
2023-02-07T04:26:35.966Z,41.75
2023-02-07T04:29:02.358Z,42.65
2023-02-07T04:31:28.819Z,43.05
2023-02-07T04:33:55.248Z,53.42
2023-02-07T04:36:22.645Z,50.38
2023-02-07T04:38:49.177Z,39.08
2023-02-07T04:41:15.616Z,40.83
2023-02-07T04:43:41.996Z,44.45
2023-02-07T04:46:08.871Z,33.50
2023-02-07T04:48:37.648Z,40.08
2023-02-07T04:51:05.131Z,34.28
2023-02-07T04:53:31.524Z,36.35
2023-02-07T04:55:57.948Z,33.45
2023-02-07T04:58:24.549Z,42.70
2023-02-07T05:00:52.872Z,36.45
2023-02-07T05:03:19.352Z,31.05
2023-02-07T05:05:45.906Z,35.42
2023-02-07T05:08:13.034Z,39.83
2023-02-07T05:10:39.911Z,30.90
2023-02-07T05:13:07.220Z,37.55
2023-02-07T05:15:33.659Z,33.35
2023-02-07T05:18:00.072Z,42.78
2023-02-07T05:20:26.997Z,38.22
2023-02-07T05:22:53.440Z,51.67
2023-02-07T05:25:19.811Z,41.53
2023-02-07T05:27:46.296Z,43.75
2023-02-07T05:30:13.248Z,37.85
2023-02-07T05:32:58.413Z,49.15
2023-02-07T05:35:24.806Z,53.63
2023-02-07T05:37:51.200Z,48.97
2023-02-07T05:40:17.615Z,44.67
2023-02-07T05:42:43.994Z,49.17
2023-02-07T05:45:11.393Z,49.05
2023-02-07T05:47:37.923Z,51.33
2023-02-07T05:50:04.633Z,48.05
2023-02-07T05:52:31.037Z,47.35
2023-02-07T05:54:57.488Z,45.70
2023-02-07T05:57:23.968Z,54.65
2023-02-07T05:59:50.353Z,40.38
2023-02-07T06:02:17.001Z,44.45
2023-02-07T06:04:43.405Z,36.80
2023-02-07T06:07:09.882Z,52.55
2023-02-07T06:09:36.253Z,45.30
2023-02-07T06:12:05.175Z,46.88
2023-02-07T06:14:31.684Z,45.03
2023-02-07T06:16:58.068Z,42.20
2023-02-07T06:19:24.441Z,45.75
2023-02-07T06:21:50.836Z,58.13
2023-02-07T06:24:17.296Z,49.42
2023-02-07T06:26:44.370Z,54.88
2023-02-07T06:29:10.808Z,41.80
2023-02-07T06:31:37.286Z,49.05
2023-02-07T06:34:03.997Z,41.50
2023-02-07T06:36:30.401Z,46.50
2023-02-07T06:38:57.355Z,39.65
2023-02-07T06:41:23.758Z,39.00
2023-02-07T06:43:50.123Z,52.45
2023-02-07T06:46:16.538Z,45.85
2023-02-07T06:48:42.979Z,46.83
2023-02-07T06:51:09.383Z,42.60
2023-02-07T06:53:35.823Z,42.33
2023-02-07T06:56:02.578Z,44.05
2023-02-07T06:58:29.027Z,41.47
2023-02-07T07:00:55.461Z,41.75
2023-02-07T07:03:26.906Z,43.63
2023-02-07T07:05:53.318Z,33.45
2023-02-07T07:08:19.793Z,61.60
2023-02-07T07:10:46.188Z,60.75
2023-02-07T07:13:15.485Z,57.63
2023-02-07T07:15:41.924Z,63.58
2023-02-07T07:18:08.318Z,65.45
2023-02-07T07:20:34.770Z,55.50
2023-02-07T07:23:01.163Z,50.40
2023-02-07T07:25:27.578Z,48.47
2023-02-07T07:27:54.054Z,47.35
2023-02-07T07:30:21.429Z,45.92
2023-02-07T07:32:48.926Z,46.67
2023-02-07T07:35:15.505Z,44.25
2023-02-07T07:37:42.130Z,48.55
2023-02-07T07:40:09.369Z,49.80
2023-02-07T07:42:36.826Z,49.88
2023-02-07T07:45:03.674Z,53.15
2023-02-07T07:47:30.079Z,52.60
2023-02-07T07:49:56.544Z,44.33
2023-02-07T07:52:22.931Z,51.78
2023-02-07T07:54:49.365Z,43.65
2023-02-07T07:57:15.781Z,41.47
2023-02-07T07:59:42.152Z,43.80
2023-02-07T08:02:15.057Z,44.28
2023-02-07T08:04:41.611Z,45.72
2023-02-07T08:07:08.094Z,44.35
2023-02-07T08:09:34.480Z,48.00
2023-02-07T08:12:00.868Z,50.95
2023-02-07T08:14:27.244Z,48.08
2023-02-07T08:16:53.648Z,56.55
2023-02-07T08:19:20.053Z,53.83
2023-02-07T08:21:46.524Z,54.40
2023-02-07T08:24:12.928Z,51.80
2023-02-07T08:26:39.351Z,54.60
2023-02-07T08:29:05.785Z,50.83
2023-02-07T08:31:32.325Z,49.17
2023-02-07T08:33:58.753Z,49.17
2023-02-07T08:36:25.213Z,51.72
2023-02-07T08:38:51.913Z,52.10
2023-02-07T08:41:18.332Z,47.00
2023-02-07T08:43:44.725Z,52.05
2023-02-07T08:46:11.236Z,49.10
2023-02-07T08:48:37.695Z,48.78
2023-02-07T08:51:06.193Z,47.50
2023-02-07T08:53:32.738Z,50.78
2023-02-07T08:55:59.173Z,43.95
2023-02-07T08:58:25.695Z,46.85
2023-02-07T09:00:52.247Z,44.45
2023-02-07T09:03:18.645Z,46.17
2023-02-07T09:05:45.139Z,46.20
2023-02-07T09:08:11.533Z,47.90
2023-02-07T09:10:38.554Z,47.85
2023-02-07T09:13:05.189Z,46.97
2023-02-07T09:15:31.589Z,49.97
2023-02-07T09:17:57.986Z,42.97
2023-02-07T09:20:24.446Z,42.20
2023-02-07T09:23:09.481Z,44.08
2023-02-07T09:25:38.120Z,44.95
2023-02-07T09:28:04.696Z,41.75
2023-02-07T09:30:31.174Z,43.25
2023-02-07T09:32:58.270Z,45.58
2023-02-07T09:35:24.927Z,59.60
2023-02-07T09:37:54.736Z,40.17
2023-02-07T09:40:22.173Z,39.00
2023-02-07T09:42:57.308Z,44.00
2023-02-07T09:45:27.296Z,39.72
2023-02-07T09:47:59.883Z,36.83
2023-02-07T09:50:32.790Z,32.55
2023-02-07T09:53:04.501Z,35.58
2023-02-07T09:55:40.194Z,30.63
2023-02-07T09:58:15.055Z,30.63
2023-02-07T10:00:42.508Z,29.35
2023-02-07T10:03:18.810Z,31.70
2023-02-07T10:06:01.483Z,33.05
2023-02-07T10:08:39.753Z,30.27
2023-02-07T10:11:10.499Z,29.60
2023-02-07T10:14:07.248Z,27.20
2023-02-07T10:16:54.876Z,30.80
2023-02-07T10:19:36.468Z,25.23
2023-02-07T10:22:08.784Z,21.15
2023-02-07T10:27:13.450Z,32.38
2023-02-07T10:29:57.060Z,29.30
2023-02-07T10:32:26.336Z,24.17
2023-02-07T10:34:56.217Z,29.08
2023-02-07T10:37:25.802Z,22.73
2023-02-07T10:40:29.056Z,22.20
2023-02-07T10:43:10.576Z,18.70
2023-02-07T10:45:39.676Z,16.95
2023-02-07T10:48:15.666Z,13.95
2023-02-07T10:50:42.145Z,13.30
2023-02-07T10:53:08.626Z,12.02
2023-02-07T10:55:46.321Z,12.13
2023-02-07T10:58:23.094Z,9.55
2023-02-07T11:00:51.939Z,8.65
2023-02-07T11:03:23.316Z,7.80
2023-02-07T11:05:55.367Z,5.72
2023-02-07T11:08:24.578Z,5.90
2023-02-07T11:10:53.376Z,7.30
2023-02-07T11:13:23.467Z,5.20
2023-02-07T11:16:04.601Z,4.90
2023-02-07T11:18:44.758Z,6.75
2023-02-07T11:21:24.829Z,4.03
2023-02-07T11:23:52.259Z,5.38
2023-02-07T11:26:20.509Z,12.07
2023-02-07T11:28:47.372Z,12.77
2023-02-07T11:31:17.967Z,7.13
2023-02-07T11:33:44.463Z,7.40
2023-02-07T11:36:12.370Z,6.05
2023-02-07T11:38:50.361Z,6.40
2023-02-07T11:41:19.057Z,8.80
2023-02-07T11:43:55.570Z,7.80
2023-02-07T11:46:24.173Z,8.77
2023-02-07T11:48:53.854Z,6.55
2023-02-07T11:51:20.243Z,7.25
2023-02-07T11:53:56.018Z,8.27
2023-02-07T11:56:28.344Z,8.98
2023-02-07T11:58:55.275Z,7.05
2023-02-07T12:01:28.823Z,8.18
2023-02-07T12:04:00.629Z,7.88
2023-02-07T12:06:43.777Z,5.90
2023-02-07T12:09:22.386Z,6.20
2023-02-07T12:11:49.376Z,8.13
2023-02-07T12:14:32.229Z,6.80
2023-02-07T12:17:00.102Z,7.25
2023-02-07T12:19:33.955Z,8.15
2023-02-07T12:22:08.163Z,7.53
2023-02-07T12:24:42.817Z,8.95
2023-02-07T12:27:09.115Z,5.90
2023-02-07T12:30:04.086Z,5.97
2023-02-07T12:32:42.782Z,9.30
2023-02-07T12:35:23.197Z,6.45
2023-02-07T12:38:12.112Z,7.25
2023-02-07T12:40:54.172Z,6.43
2023-02-07T12:43:22.660Z,9.95
2023-02-07T12:46:01.140Z,7.70
2023-02-07T12:48:52.089Z,8.00
2023-02-07T12:51:27.733Z,8.60
2023-02-07T12:54:08.380Z,7.03
2023-02-07T12:56:50.193Z,7.20
2023-02-07T12:59:40.462Z,7.47
2023-02-07T13:02:24.889Z,13.48
2023-02-07T13:05:10.406Z,10.27
2023-02-07T13:07:51.901Z,10.05
2023-02-07T13:10:23.190Z,7.38
2023-02-07T13:13:06.144Z,8.23
2023-02-07T13:15:47.699Z,7.28
2023-02-07T13:18:38.992Z,12.93
2023-02-07T13:21:31.162Z,7.97
2023-02-07T13:24:01.380Z,8.45
2023-02-07T13:26:28.398Z,7.28
2023-02-07T13:28:57.110Z,8.48
2023-02-07T13:31:35.789Z,8.07
2023-02-07T13:34:03.396Z,7.60
2023-02-07T13:36:40.970Z,7.00
2023-02-07T13:39:28.656Z,10.13
2023-02-07T13:42:10.822Z,6.85
2023-02-07T13:44:45.812Z,6.20
2023-02-07T13:47:22.281Z,6.32
2023-02-07T13:50:12.353Z,9.20
2023-02-07T13:52:44.587Z,6.15
2023-02-07T13:58:02.847Z,6.05
2023-02-07T14:00:57.289Z,6.63
2023-02-07T14:03:28.884Z,6.93
2023-02-07T14:06:14.993Z,7.57
2023-02-07T14:08:42.771Z,8.80
2023-02-07T14:11:33.957Z,7.80
2023-02-07T14:14:27.476Z,7.72
2023-02-07T14:16:53.785Z,6.93
2023-02-07T14:19:45.456Z,7.78
2023-02-07T14:22:32.436Z,6.77
2023-02-07T14:24:58.874Z,4.72
2023-02-07T14:27:39.308Z,5.13
2023-02-07T14:30:11.810Z,4.40
2023-02-07T14:33:13.630Z,5.18
2023-02-07T14:36:25.328Z,5.13
2023-02-07T14:39:29.823Z,5.10
2023-02-07T14:42:11.334Z,5.05
2023-02-07T14:44:40.026Z,5.03
2023-02-07T14:47:08.092Z,7.28
2023-02-07T14:49:46.644Z,5.03
2023-02-07T14:52:15.919Z,7.22
2023-02-07T14:54:46.448Z,7.30
2023-02-07T14:57:41.273Z,5.60
2023-02-07T15:00:07.523Z,5.90
2023-02-07T15:02:38.491Z,5.82
2023-02-07T15:05:13.950Z,5.60
2023-02-07T15:07:43.375Z,5.60
2023-02-07T15:10:16.231Z,5.80
2023-02-07T15:12:45.779Z,6.65
2023-02-07T15:15:20.951Z,6.72
2023-02-07T15:17:48.401Z,7.10
2023-02-07T15:20:17.434Z,10.75
2023-02-07T15:22:47.763Z,6.32
2023-02-07T15:25:14.609Z,8.40
2023-02-07T15:27:40.988Z,11.73
2023-02-07T15:30:11.526Z,21.70
2023-02-07T15:32:42.554Z,16.88
2023-02-07T15:35:14.022Z,15.80
2023-02-07T15:37:40.401Z,11.15
2023-02-07T15:40:07.227Z,10.88
2023-02-07T15:42:33.703Z,9.63
2023-02-07T15:45:00.114Z,11.48
2023-02-07T15:47:29.603Z,10.77
2023-02-07T15:50:03.096Z,8.32
2023-02-07T15:52:41.315Z,14.85
2023-02-07T15:55:36.280Z,11.90
2023-02-07T15:58:04.721Z,14.27
2023-02-07T16:00:37.125Z,8.68
2023-02-07T16:03:06.275Z,8.88
2023-02-07T16:05:38.599Z,20.73
2023-02-07T16:08:08.953Z,19.52
2023-02-07T16:10:38.268Z,25.50
2023-02-07T16:13:19.408Z,25.45
2023-02-07T16:15:58.542Z,25.95
2023-02-07T16:18:42.516Z,23.35
2023-02-07T16:21:14.783Z,29.60
2023-02-07T16:26:07.574Z,27.00
2023-02-07T16:28:34.053Z,22.58
2023-02-07T16:31:00.634Z,16.52
2023-02-07T16:33:27.042Z,15.85
2023-02-07T16:35:53.409Z,20.15
2023-02-07T16:38:19.813Z,26.95
2023-02-07T16:40:46.236Z,21.75
2023-02-07T16:43:30.728Z,20.92
2023-02-07T16:45:57.130Z,19.55
2023-02-07T16:48:23.809Z,17.08
2023-02-07T16:50:50.235Z,20.63
2023-02-07T16:53:16.632Z,20.88
2023-02-07T16:55:43.039Z,21.50
2023-02-07T16:58:18.708Z,20.15
2023-02-07T17:00:45.097Z,21.08
2023-02-07T17:03:15.306Z,23.08
2023-02-07T17:05:41.766Z,22.30
2023-02-07T17:08:13.628Z,20.27
2023-02-07T17:10:40.524Z,28.38
2023-02-07T17:13:07.304Z,25.77
2023-02-07T17:15:33.846Z,22.45
2023-02-07T17:18:00.214Z,21.10
2023-02-07T17:20:30.361Z,20.25
2023-02-07T17:22:56.817Z,19.38
2023-02-07T17:25:25.217Z,19.25
2023-02-07T17:27:51.806Z,23.10
2023-02-07T17:30:23.713Z,26.92
2023-02-07T17:32:50.232Z,25.02
2023-02-07T17:35:16.745Z,23.58
2023-02-07T17:37:43.273Z,22.73
2023-02-07T17:40:35.234Z,23.08
2023-02-07T17:43:02.209Z,24.85
2023-02-07T17:45:29.454Z,22.17
2023-02-07T17:47:59.279Z,23.15
2023-02-07T17:50:29.424Z,20.13
2023-02-07T17:52:56.876Z,20.98
2023-02-07T17:55:23.291Z,20.88
2023-02-07T17:57:49.850Z,20.98
2023-02-07T18:00:21.772Z,24.73
2023-02-07T18:02:48.889Z,20.58
2023-02-07T18:05:16.452Z,22.33
2023-02-07T18:07:44.215Z,21.75
2023-02-07T18:10:13.618Z,25.95
2023-02-07T18:12:40.032Z,36.63
2023-02-07T18:15:08.879Z,46.95
2023-02-07T18:17:36.738Z,32.38
2023-02-07T18:20:05.598Z,25.23
2023-02-07T18:22:32.031Z,28.63
2023-02-07T18:24:58.453Z,29.95
2023-02-07T18:27:25.031Z,30.13
2023-02-07T18:29:51.404Z,31.23
2023-02-07T18:32:17.791Z,29.17
2023-02-07T18:34:45.047Z,29.52
2023-02-07T18:37:11.425Z,31.45
2023-02-07T18:39:37.873Z,28.38
2023-02-07T18:42:04.262Z,26.48
2023-02-07T18:44:30.697Z,33.42
2023-02-07T18:46:57.089Z,29.75
2023-02-07T18:49:23.490Z,30.77
2023-02-07T18:51:50.033Z,26.27
2023-02-07T18:54:16.456Z,23.13
2023-02-07T18:56:47.374Z,21.17
2023-02-07T18:59:17.172Z,28.00
2023-02-07T19:01:47.951Z,23.70
2023-02-07T19:04:15.649Z,23.67
2023-02-07T19:06:42.350Z,24.40
2023-02-07T19:09:09.156Z,26.48
2023-02-07T19:11:39.623Z,37.88
2023-02-07T19:14:15.355Z,41.38
2023-02-07T19:16:42.321Z,44.22
2023-02-07T19:19:10.573Z,33.58
2023-02-07T19:21:37.089Z,25.73
2023-02-07T19:24:06.778Z,30.23
2023-02-07T19:26:33.281Z,28.20
2023-02-07T19:29:00.563Z,28.45
2023-02-07T19:31:29.210Z,26.20
2023-02-07T19:33:56.645Z,32.17
2023-02-07T19:36:25.577Z,29.48
2023-02-07T19:38:54.118Z,34.50
2023-02-07T19:41:22.041Z,31.63
2023-02-07T19:43:48.763Z,34.22
2023-02-07T19:46:15.474Z,36.28
2023-02-07T19:48:42.178Z,34.30
2023-02-07T19:51:19.936Z,32.83
2023-02-07T19:53:48.050Z,34.72
2023-02-07T19:56:14.471Z,33.40
2023-02-07T19:58:45.289Z,31.27
2023-02-07T20:01:11.985Z,32.63
2023-02-07T20:03:39.377Z,29.58
2023-02-07T20:06:10.382Z,27.00
2023-02-07T20:08:38.742Z,26.58
2023-02-07T20:11:08.579Z,24.75
2023-02-07T20:13:36.438Z,24.75
2023-02-07T20:16:12.633Z,23.77
2023-02-07T20:18:39.202Z,25.58
2023-02-07T20:21:11.707Z,24.27
2023-02-07T20:23:46.708Z,26.65
2023-02-07T20:26:17.092Z,28.17
2023-02-07T20:28:43.527Z,30.33
2023-02-07T20:31:12.730Z,25.20
2023-02-07T20:33:40.291Z,26.60
2023-02-07T20:36:07.858Z,29.55
2023-02-07T20:38:34.593Z,33.53
2023-02-07T20:41:15.975Z,28.17
2023-02-07T20:43:42.910Z,35.00
2023-02-07T20:46:12.478Z,47.65
2023-02-07T20:48:39.844Z,59.60
2023-02-07T20:51:10.303Z,51.03
2023-02-07T20:53:41.242Z,42.67
2023-02-07T20:56:17.149Z,49.85
2023-02-07T20:58:47.002Z,51.55
2023-02-07T21:01:16.040Z,53.05
2023-02-07T21:03:45.113Z,44.42
2023-02-07T21:06:12.989Z,42.72
2023-02-07T21:08:39.856Z,31.17
2023-02-07T21:11:07.825Z,33.17
2023-02-07T21:13:34.985Z,36.67
2023-02-07T21:16:03.826Z,38.53
2023-02-07T21:18:31.372Z,33.15
2023-02-07T21:20:57.935Z,33.42
2023-02-07T21:23:24.555Z,37.50
2023-02-07T21:25:50.997Z,43.80
2023-02-07T21:28:17.474Z,42.40
2023-02-07T21:30:43.981Z,46.28
2023-02-07T21:33:10.409Z,48.38
2023-02-07T21:35:36.787Z,51.35
2023-02-07T21:38:03.272Z,49.72
2023-02-07T21:40:29.736Z,42.75
2023-02-07T21:42:56.315Z,43.47
2023-02-07T21:45:22.717Z,44.97
2023-02-07T21:47:49.142Z,40.45
2023-02-07T21:50:15.552Z,44.72
2023-02-07T21:52:41.986Z,32.10
2023-02-07T21:55:08.438Z,37.75
2023-02-07T21:57:34.843Z,31.20
2023-02-07T22:00:01.215Z,31.10
2023-02-07T22:02:27.892Z,30.10
2023-02-07T22:04:54.312Z,34.45
2023-02-07T22:07:20.770Z,34.15
2023-02-07T22:09:50.164Z,37.17
2023-02-07T22:12:16.569Z,44.47
2023-02-07T22:14:42.943Z,45.08
2023-02-07T22:17:10.119Z,39.20
2023-02-07T22:19:36.603Z,46.25
2023-02-07T22:22:02.968Z,41.90
2023-02-07T22:24:31.635Z,45.85
2023-02-07T22:26:58.016Z,55.55
2023-02-07T22:29:24.387Z,58.58
2023-02-07T22:31:50.848Z,60.67
2023-02-07T22:34:17.395Z,63.42
2023-02-07T22:36:45.137Z,70.13
2023-02-07T22:39:13.274Z,56.92
2023-02-07T22:41:39.640Z,52.63
2023-02-07T22:44:06.068Z,48.67
2023-02-07T22:46:32.512Z,44.88
2023-02-07T22:48:59.061Z,53.15
2023-02-07T22:51:32.336Z,53.67
2023-02-07T22:54:01.526Z,50.53
2023-02-07T22:56:28.224Z,53.80
2023-02-07T22:58:55.215Z,51.47
2023-02-07T23:01:23.085Z,53.85
2023-02-07T23:03:50.347Z,58.50
2023-02-07T23:06:17.153Z,61.65
2023-02-07T23:08:43.608Z,63.00
2023-02-07T23:11:12.578Z,63.30
2023-02-07T23:13:40.773Z,73.00
2023-02-07T23:16:15.119Z,73.90
2023-02-07T23:18:41.741Z,64.40
2023-02-07T23:21:10.014Z,64.97
2023-02-07T23:23:37.088Z,66.95
2023-02-07T23:26:09.854Z,61.35
2023-02-07T23:28:37.307Z,52.25
2023-02-07T23:31:05.849Z,56.47
2023-02-07T23:33:32.659Z,52.65
2023-02-07T23:35:59.461Z,48.75
2023-02-07T23:38:26.111Z,46.42
2023-02-07T23:40:52.604Z,45.42
2023-02-07T23:43:19.015Z,48.78
2023-02-07T23:45:45.416Z,47.28
2023-02-07T23:48:11.895Z,48.70
2023-02-07T23:50:38.673Z,48.58
2023-02-07T23:53:05.478Z,50.85
2023-02-07T23:55:31.857Z,49.90
2023-02-07T23:57:58.264Z,55.53
